sensor_id;sensor_type;location;lat;lon;timestamp;temperature;humidity
1806;DHT22;901;48.142;11.516;2022-08-24T00:00:15;15.80;99.90
1806;DHT22;901;48.142;11.516;2022-08-24T00:02:42;15.80;99.90
1806;DHT22;901;48.142;11.516;2022-08-24T00:05:10;15.70;99.90
1806;DHT22;901;48.142;11.516;2022-08-24T00:07:37;15.70;99.90
1806;DHT22;901;48.142;11.516;2022-08-24T00:10:06;15.70;99.90
1806;DHT22;901;48.142;11.516;2022-08-24T00:12:33;15.70;99.90
1806;DHT22;901;48.142;11.516;2022-08-24T00:15:00;15.70;99.90
1806;DHT22;901;48.142;11.516;2022-08-24T00:17:28;15.60;99.90
1806;DHT22;901;48.142;11.516;2022-08-24T00:19:55;15.60;99.90
1806;DHT22;901;48.142;11.516;2022-08-24T00:22:22;15.60;99.90
1806;DHT22;901;48.142;11.516;2022-08-24T00:24:49;15.50;99.90
1806;DHT22;901;48.142;11.516;2022-08-24T00:27:16;15.50;99.90
1806;DHT22;901;48.142;11.516;2022-08-24T00:29:43;15.50;99.90
1806;DHT22;901;48.142;11.516;2022-08-24T00:32:10;15.40;99.90
1806;DHT22;901;48.142;11.516;2022-08-24T00:34:38;15.40;99.90
1806;DHT22;901;48.142;11.516;2022-08-24T00:37:05;15.40;99.90
1806;DHT22;901;48.142;11.516;2022-08-24T00:39:32;15.30;99.90
1806;DHT22;901;48.142;11.516;2022-08-24T00:41:59;15.30;99.90
1806;DHT22;901;48.142;11.516;2022-08-24T00:44:26;15.30;99.90
1806;DHT22;901;48.142;11.516;2022-08-24T00:46:55;15.30;99.90
1806;DHT22;901;48.142;11.516;2022-08-24T00:49:27;15.30;99.90
1806;DHT22;901;48.142;11.516;2022-08-24T00:52:03;15.30;99.90
1806;DHT22;901;48.142;11.516;2022-08-24T00:54:32;15.20;99.90
1806;DHT22;901;48.142;11.516;2022-08-24T00:57:04;15.20;99.90
1806;DHT22;901;48.142;11.516;2022-08-24T00:59:36;15.20;99.90
1806;DHT22;901;48.142;11.516;2022-08-24T01:02:07;15.20;99.90
1806;DHT22;901;48.142;11.516;2022-08-24T01:04:41;15.10;99.90
1806;DHT22;901;48.142;11.516;2022-08-24T01:07:09;15.10;99.90
1806;DHT22;901;48.142;11.516;2022-08-24T01:09:36;15.10;99.90
1806;DHT22;901;48.142;11.516;2022-08-24T01:12:04;15.10;99.90
1806;DHT22;901;48.142;11.516;2022-08-24T01:14:31;15.10;99.90
1806;DHT22;901;48.142;11.516;2022-08-24T01:16:58;15.10;99.90
1806;DHT22;901;48.142;11.516;2022-08-24T01:19:44;15.00;99.90
1806;DHT22;901;48.142;11.516;2022-08-24T01:22:27;15.00;99.90
1806;DHT22;901;48.142;11.516;2022-08-24T01:24:56;14.90;99.90
1806;DHT22;901;48.142;11.516;2022-08-24T01:27:23;14.80;99.90
1806;DHT22;901;48.142;11.516;2022-08-24T01:29:50;14.90;99.90
1806;DHT22;901;48.142;11.516;2022-08-24T01:32:19;14.80;99.90
1806;DHT22;901;48.142;11.516;2022-08-24T01:34:48;14.80;99.90
1806;DHT22;901;48.142;11.516;2022-08-24T01:37:15;14.80;99.90
1806;DHT22;901;48.142;11.516;2022-08-24T01:39:44;14.70;99.90
1806;DHT22;901;48.142;11.516;2022-08-24T01:42:13;14.70;99.90
1806;DHT22;901;48.142;11.516;2022-08-24T01:44:41;14.70;99.90
1806;DHT22;901;48.142;11.516;2022-08-24T01:47:11;14.70;99.90
1806;DHT22;901;48.142;11.516;2022-08-24T01:49:41;14.70;99.90
1806;DHT22;901;48.142;11.516;2022-08-24T01:52:11;14.60;99.90
1806;DHT22;901;48.142;11.516;2022-08-24T01:54:38;14.60;99.90
1806;DHT22;901;48.142;11.516;2022-08-24T01:57:05;14.60;99.90
1806;DHT22;901;48.142;11.516;2022-08-24T01:59:34;14.50;99.90
1806;DHT22;901;48.142;11.516;2022-08-24T02:02:05;14.50;99.90
1806;DHT22;901;48.142;11.516;2022-08-24T02:04:32;14.50;99.90
1806;DHT22;901;48.142;11.516;2022-08-24T02:06:59;14.50;99.90
1806;DHT22;901;48.142;11.516;2022-08-24T02:09:26;14.50;99.90
1806;DHT22;901;48.142;11.516;2022-08-24T02:11:54;14.50;99.90
1806;DHT22;901;48.142;11.516;2022-08-24T02:14:20;14.50;99.90
1806;DHT22;901;48.142;11.516;2022-08-24T02:16:49;14.40;99.90
1806;DHT22;901;48.142;11.516;2022-08-24T02:19:15;14.40;99.90
1806;DHT22;901;48.142;11.516;2022-08-24T02:21:42;14.40;99.90
1806;DHT22;901;48.142;11.516;2022-08-24T02:24:09;14.40;99.90
1806;DHT22;901;48.142;11.516;2022-08-24T02:26:36;14.40;99.90
1806;DHT22;901;48.142;11.516;2022-08-24T02:29:03;14.30;99.90
1806;DHT22;901;48.142;11.516;2022-08-24T02:31:30;14.30;99.90
1806;DHT22;901;48.142;11.516;2022-08-24T02:33:58;14.30;99.90
1806;DHT22;901;48.142;11.516;2022-08-24T02:36:25;14.30;99.90
1806;DHT22;901;48.142;11.516;2022-08-24T02:38:52;14.30;99.90
1806;DHT22;901;48.142;11.516;2022-08-24T02:41:19;14.30;99.90
1806;DHT22;901;48.142;11.516;2022-08-24T02:43:46;14.40;99.90
1806;DHT22;901;48.142;11.516;2022-08-24T02:46:17;14.40;99.90
1806;DHT22;901;48.142;11.516;2022-08-24T02:48:44;14.30;99.90
1806;DHT22;901;48.142;11.516;2022-08-24T02:51:19;14.30;99.90
1806;DHT22;901;48.142;11.516;2022-08-24T02:53:46;14.30;99.90
1806;DHT22;901;48.142;11.516;2022-08-24T02:56:13;14.30;99.90
1806;DHT22;901;48.142;11.516;2022-08-24T02:58:41;14.30;99.90
1806;DHT22;901;48.142;11.516;2022-08-24T03:01:09;14.30;99.90
1806;DHT22;901;48.142;11.516;2022-08-24T03:03:36;14.20;99.90
1806;DHT22;901;48.142;11.516;2022-08-24T03:06:03;14.20;99.90
1806;DHT22;901;48.142;11.516;2022-08-24T03:08:31;14.20;99.90
1806;DHT22;901;48.142;11.516;2022-08-24T03:10:58;14.20;99.90
1806;DHT22;901;48.142;11.516;2022-08-24T03:13:26;14.10;99.90
1806;DHT22;901;48.142;11.516;2022-08-24T03:15:53;14.10;99.90
1806;DHT22;901;48.142;11.516;2022-08-24T03:18:21;14.10;99.90
1806;DHT22;901;48.142;11.516;2022-08-24T03:20:50;14.10;99.90
1806;DHT22;901;48.142;11.516;2022-08-24T03:23:17;14.10;99.90
1806;DHT22;901;48.142;11.516;2022-08-24T03:25:45;14.10;99.90
1806;DHT22;901;48.142;11.516;2022-08-24T03:28:12;14.10;99.90
1806;DHT22;901;48.142;11.516;2022-08-24T03:30:40;14.10;99.90
1806;DHT22;901;48.142;11.516;2022-08-24T03:33:07;14.10;99.90
1806;DHT22;901;48.142;11.516;2022-08-24T03:35:34;14.10;99.90
1806;DHT22;901;48.142;11.516;2022-08-24T03:38:00;14.10;99.90
1806;DHT22;901;48.142;11.516;2022-08-24T03:40:27;14.00;99.90
1806;DHT22;901;48.142;11.516;2022-08-24T03:42:59;14.00;99.90
1806;DHT22;901;48.142;11.516;2022-08-24T03:45:26;14.00;99.90
1806;DHT22;901;48.142;11.516;2022-08-24T03:47:54;14.00;99.90
1806;DHT22;901;48.142;11.516;2022-08-24T03:50:21;14.00;99.90
1806;DHT22;901;48.142;11.516;2022-08-24T03:52:49;14.00;99.90
1806;DHT22;901;48.142;11.516;2022-08-24T03:55:16;14.00;99.90
1806;DHT22;901;48.142;11.516;2022-08-24T03:57:43;14.00;99.90
1806;DHT22;901;48.142;11.516;2022-08-24T04:00:13;14.00;99.90
1806;DHT22;901;48.142;11.516;2022-08-24T04:02:40;14.00;99.90
1806;DHT22;901;48.142;11.516;2022-08-24T04:05:07;14.00;99.90
1806;DHT22;901;48.142;11.516;2022-08-24T04:07:35;14.00;99.90
1806;DHT22;901;48.142;11.516;2022-08-24T04:10:02;14.00;99.90
1806;DHT22;901;48.142;11.516;2022-08-24T04:12:29;13.90;99.90
1806;DHT22;901;48.142;11.516;2022-08-24T04:14:56;13.90;99.90
1806;DHT22;901;48.142;11.516;2022-08-24T04:17:24;13.90;99.90
1806;DHT22;901;48.142;11.516;2022-08-24T04:19:51;13.90;99.90
1806;DHT22;901;48.142;11.516;2022-08-24T04:22:24;13.90;99.90
1806;DHT22;901;48.142;11.516;2022-08-24T04:24:51;13.80;99.90
1806;DHT22;901;48.142;11.516;2022-08-24T04:27:19;13.80;99.90
1806;DHT22;901;48.142;11.516;2022-08-24T04:29:46;13.90;99.90
1806;DHT22;901;48.142;11.516;2022-08-24T04:32:13;13.90;99.90
1806;DHT22;901;48.142;11.516;2022-08-24T04:34:42;14.00;99.90
1806;DHT22;901;48.142;11.516;2022-08-24T04:37:10;14.10;99.90
1806;DHT22;901;48.142;11.516;2022-08-24T04:39:37;14.30;99.90
1806;DHT22;901;48.142;11.516;2022-08-24T04:42:05;14.50;99.90
1806;DHT22;901;48.142;11.516;2022-08-24T04:44:32;14.80;99.90
1806;DHT22;901;48.142;11.516;2022-08-24T04:46:59;15.00;99.90
1806;DHT22;901;48.142;11.516;2022-08-24T04:49:26;15.30;99.90
1806;DHT22;901;48.142;11.516;2022-08-24T04:51:55;15.60;99.90
1806;DHT22;901;48.142;11.516;2022-08-24T04:54:22;15.90;99.90
1806;DHT22;901;48.142;11.516;2022-08-24T04:56:49;16.20;99.90
1806;DHT22;901;48.142;11.516;2022-08-24T04:59:16;16.70;99.90
1806;DHT22;901;48.142;11.516;2022-08-24T05:01:43;17.00;99.90
1806;DHT22;901;48.142;11.516;2022-08-24T05:04:10;17.40;99.90
1806;DHT22;901;48.142;11.516;2022-08-24T05:06:40;17.80;99.90
1806;DHT22;901;48.142;11.516;2022-08-24T05:09:08;18.10;99.90
1806;DHT22;901;48.142;11.516;2022-08-24T05:11:36;18.40;99.90
1806;DHT22;901;48.142;11.516;2022-08-24T05:14:05;18.70;99.90
1806;DHT22;901;48.142;11.516;2022-08-24T05:16:32;19.00;99.90
1806;DHT22;901;48.142;11.516;2022-08-24T05:19:02;19.30;99.90
1806;DHT22;901;48.142;11.516;2022-08-24T05:21:32;19.70;99.90
1806;DHT22;901;48.142;11.516;2022-08-24T05:23:59;19.90;99.90
1806;DHT22;901;48.142;11.516;2022-08-24T05:26:29;20.10;99.90
1806;DHT22;901;48.142;11.516;2022-08-24T05:28:58;20.30;99.90
1806;DHT22;901;48.142;11.516;2022-08-24T05:31:28;20.50;99.90
1806;DHT22;901;48.142;11.516;2022-08-24T05:33:55;20.70;99.90
1806;DHT22;901;48.142;11.516;2022-08-24T05:36:24;20.80;99.90
1806;DHT22;901;48.142;11.516;2022-08-24T05:38:53;21.00;99.90
1806;DHT22;901;48.142;11.516;2022-08-24T05:41:20;21.10;99.90
1806;DHT22;901;48.142;11.516;2022-08-24T05:43:49;21.20;99.90
1806;DHT22;901;48.142;11.516;2022-08-24T05:46:16;21.30;99.90
1806;DHT22;901;48.142;11.516;2022-08-24T05:48:43;21.30;99.90
1806;DHT22;901;48.142;11.516;2022-08-24T05:51:11;21.40;99.90
1806;DHT22;901;48.142;11.516;2022-08-24T05:53:39;21.40;99.90
1806;DHT22;901;48.142;11.516;2022-08-24T05:56:08;21.40;99.90
1806;DHT22;901;48.142;11.516;2022-08-24T05:58:36;21.40;99.90
1806;DHT22;901;48.142;11.516;2022-08-24T06:01:10;21.30;99.90
1806;DHT22;901;48.142;11.516;2022-08-24T06:03:37;21.40;99.90
1806;DHT22;901;48.142;11.516;2022-08-24T06:06:06;21.40;99.90
1806;DHT22;901;48.142;11.516;2022-08-24T06:08:34;21.20;99.90
1806;DHT22;901;48.142;11.516;2022-08-24T06:11:01;21.00;99.90
1806;DHT22;901;48.142;11.516;2022-08-24T06:13:28;20.70;99.90
1806;DHT22;901;48.142;11.516;2022-08-24T06:16:04;20.50;99.90
1806;DHT22;901;48.142;11.516;2022-08-24T06:18:33;20.30;99.90
1806;DHT22;901;48.142;11.516;2022-08-24T06:21:03;20.10;99.90
1806;DHT22;901;48.142;11.516;2022-08-24T06:23:31;19.80;99.90
1806;DHT22;901;48.142;11.516;2022-08-24T06:25:58;19.70;99.90
1806;DHT22;901;48.142;11.516;2022-08-24T06:28:43;19.70;99.90
1806;DHT22;901;48.142;11.516;2022-08-24T06:31:10;19.50;99.90
1806;DHT22;901;48.142;11.516;2022-08-24T06:33:38;19.50;99.90
1806;DHT22;901;48.142;11.516;2022-08-24T06:36:06;19.50;99.90
1806;DHT22;901;48.142;11.516;2022-08-24T06:38:32;19.40;99.90
1806;DHT22;901;48.142;11.516;2022-08-24T06:40:59;19.50;99.90
1806;DHT22;901;48.142;11.516;2022-08-24T06:43:26;19.50;99.90
1806;DHT22;901;48.142;11.516;2022-08-24T06:45:54;19.50;99.90
1806;DHT22;901;48.142;11.516;2022-08-24T06:48:22;19.60;99.90
1806;DHT22;901;48.142;11.516;2022-08-24T06:50:51;19.70;99.90
1806;DHT22;901;48.142;11.516;2022-08-24T06:53:18;19.70;99.90
1806;DHT22;901;48.142;11.516;2022-08-24T06:55:45;19.70;99.90
1806;DHT22;901;48.142;11.516;2022-08-24T06:58:13;19.70;99.90
1806;DHT22;901;48.142;11.516;2022-08-24T07:00:40;19.90;99.90
1806;DHT22;901;48.142;11.516;2022-08-24T07:03:07;19.90;99.90
1806;DHT22;901;48.142;11.516;2022-08-24T07:05:34;19.90;99.90
1806;DHT22;901;48.142;11.516;2022-08-24T07:08:02;19.90;99.90
1806;DHT22;901;48.142;11.516;2022-08-24T07:10:29;19.90;99.90
1806;DHT22;901;48.142;11.516;2022-08-24T07:12:57;20.00;99.90
1806;DHT22;901;48.142;11.516;2022-08-24T07:15:24;20.10;99.90
1806;DHT22;901;48.142;11.516;2022-08-24T07:17:51;20.30;99.90
1806;DHT22;901;48.142;11.516;2022-08-24T07:20:19;20.40;99.90
1806;DHT22;901;48.142;11.516;2022-08-24T07:22:45;20.50;99.90
1806;DHT22;901;48.142;11.516;2022-08-24T07:25:14;20.50;99.90
1806;DHT22;901;48.142;11.516;2022-08-24T07:27:41;20.50;99.90
1806;DHT22;901;48.142;11.516;2022-08-24T07:30:08;20.50;99.90
1806;DHT22;901;48.142;11.516;2022-08-24T07:32:35;20.60;99.90
1806;DHT22;901;48.142;11.516;2022-08-24T07:35:02;20.70;99.90
1806;DHT22;901;48.142;11.516;2022-08-24T07:37:29;20.70;99.90
1806;DHT22;901;48.142;11.516;2022-08-24T07:39:56;20.90;99.90
1806;DHT22;901;48.142;11.516;2022-08-24T07:42:24;21.00;99.90
1806;DHT22;901;48.142;11.516;2022-08-24T07:44:51;21.00;99.90
1806;DHT22;901;48.142;11.516;2022-08-24T07:47:18;21.00;99.90
1806;DHT22;901;48.142;11.516;2022-08-24T07:49:46;21.10;99.90
1806;DHT22;901;48.142;11.516;2022-08-24T07:52:12;21.10;99.90
1806;DHT22;901;48.142;11.516;2022-08-24T07:54:39;21.10;99.90
1806;DHT22;901;48.142;11.516;2022-08-24T07:57:06;21.10;99.90
1806;DHT22;901;48.142;11.516;2022-08-24T07:59:35;21.20;99.90
1806;DHT22;901;48.142;11.516;2022-08-24T08:02:03;21.30;99.90
1806;DHT22;901;48.142;11.516;2022-08-24T08:04:30;21.50;99.90
1806;DHT22;901;48.142;11.516;2022-08-24T08:06:57;21.60;99.90
1806;DHT22;901;48.142;11.516;2022-08-24T08:09:25;21.70;99.90
1806;DHT22;901;48.142;11.516;2022-08-24T08:11:52;21.80;99.90
1806;DHT22;901;48.142;11.516;2022-08-24T08:14:19;22.00;99.90
1806;DHT22;901;48.142;11.516;2022-08-24T08:16:48;22.00;99.90
1806;DHT22;901;48.142;11.516;2022-08-24T08:19:15;22.00;99.90
1806;DHT22;901;48.142;11.516;2022-08-24T08:21:43;22.00;99.90
1806;DHT22;901;48.142;11.516;2022-08-24T08:24:27;22.00;99.90
1806;DHT22;901;48.142;11.516;2022-08-24T08:26:54;22.00;99.90
1806;DHT22;901;48.142;11.516;2022-08-24T08:29:22;22.20;99.90
1806;DHT22;901;48.142;11.516;2022-08-24T08:31:51;22.30;99.90
1806;DHT22;901;48.142;11.516;2022-08-24T08:34:18;22.50;99.90
1806;DHT22;901;48.142;11.516;2022-08-24T08:36:45;22.70;99.90
1806;DHT22;901;48.142;11.516;2022-08-24T08:39:14;22.70;99.90
1806;DHT22;901;48.142;11.516;2022-08-24T08:42:17;22.60;99.90
1806;DHT22;901;48.142;11.516;2022-08-24T08:44:55;22.60;99.90
1806;DHT22;901;48.142;11.516;2022-08-24T08:51:03;22.60;99.90
1806;DHT22;901;48.142;11.516;2022-08-24T08:56:43;22.90;99.90
1806;DHT22;901;48.142;11.516;2022-08-24T08:59:17;23.10;99.90
1806;DHT22;901;48.142;11.516;2022-08-24T09:01:53;23.20;99.90
1806;DHT22;901;48.142;11.516;2022-08-24T09:04:54;23.30;99.90
1806;DHT22;901;48.142;11.516;2022-08-24T09:07:33;23.30;99.90
1806;DHT22;901;48.142;11.516;2022-08-24T09:10:31;23.20;99.90
1806;DHT22;901;48.142;11.516;2022-08-24T09:13:16;23.10;99.90
1806;DHT22;901;48.142;11.516;2022-08-24T09:16:06;23.30;99.90
1806;DHT22;901;48.142;11.516;2022-08-24T09:18:48;23.30;99.90
1806;DHT22;901;48.142;11.516;2022-08-24T09:24:38;23.30;99.90
1806;DHT22;901;48.142;11.516;2022-08-24T09:27:14;23.30;99.90
1806;DHT22;901;48.142;11.516;2022-08-24T09:29:58;23.50;99.90
1806;DHT22;901;48.142;11.516;2022-08-24T09:32:45;23.50;99.90
1806;DHT22;901;48.142;11.516;2022-08-24T09:35:20;23.30;99.90
1806;DHT22;901;48.142;11.516;2022-08-24T09:37:59;23.50;99.90
1806;DHT22;901;48.142;11.516;2022-08-24T09:40:35;23.60;99.90
1806;DHT22;901;48.142;11.516;2022-08-24T09:43:41;23.70;99.90
1806;DHT22;901;48.142;11.516;2022-08-24T09:46:42;23.70;99.90
1806;DHT22;901;48.142;11.516;2022-08-24T09:52:35;23.90;99.90
1806;DHT22;901;48.142;11.516;2022-08-24T09:58:17;24.10;99.90
1806;DHT22;901;48.142;11.516;2022-08-24T10:00:54;24.30;99.90
1806;DHT22;901;48.142;11.516;2022-08-24T10:03:44;24.30;99.90
1806;DHT22;901;48.142;11.516;2022-08-24T10:06:22;24.30;99.90
1806;DHT22;901;48.142;11.516;2022-08-24T10:12:09;24.20;99.90
1806;DHT22;901;48.142;11.516;2022-08-24T10:14:51;24.20;99.90
1806;DHT22;901;48.142;11.516;2022-08-24T10:17:36;24.40;99.90
1806;DHT22;901;48.142;11.516;2022-08-24T10:20:12;24.50;99.90
1806;DHT22;901;48.142;11.516;2022-08-24T10:22:59;24.40;99.90
1806;DHT22;901;48.142;11.516;2022-08-24T10:25:34;24.50;99.90
1806;DHT22;901;48.142;11.516;2022-08-24T10:28:22;24.70;99.90
1806;DHT22;901;48.142;11.516;2022-08-24T10:31:04;24.90;99.90
1806;DHT22;901;48.142;11.516;2022-08-24T10:33:36;24.80;99.90
1806;DHT22;901;48.142;11.516;2022-08-24T10:36:24;24.70;99.90
1806;DHT22;901;48.142;11.516;2022-08-24T10:39:07;24.80;99.90
1806;DHT22;901;48.142;11.516;2022-08-24T10:45:40;25.10;99.90
1806;DHT22;901;48.142;11.516;2022-08-24T10:48:35;25.20;99.90
1806;DHT22;901;48.142;11.516;2022-08-24T10:51:18;25.20;99.90
1806;DHT22;901;48.142;11.516;2022-08-24T10:53:51;25.20;99.90
1806;DHT22;901;48.142;11.516;2022-08-24T10:56:20;25.30;99.90
1806;DHT22;901;48.142;11.516;2022-08-24T10:59:00;25.40;99.90
1806;DHT22;901;48.142;11.516;2022-08-24T11:01:31;25.40;99.90
1806;DHT22;901;48.142;11.516;2022-08-24T11:04:03;25.40;99.90
1806;DHT22;901;48.142;11.516;2022-08-24T11:06:32;25.30;99.90
1806;DHT22;901;48.142;11.516;2022-08-24T11:09:04;25.30;99.90
1806;DHT22;901;48.142;11.516;2022-08-24T11:11:34;25.50;99.90
1806;DHT22;901;48.142;11.516;2022-08-24T11:14:04;25.60;99.90
1806;DHT22;901;48.142;11.516;2022-08-24T11:16:36;25.60;99.90
1806;DHT22;901;48.142;11.516;2022-08-24T11:19:08;25.60;99.90
1806;DHT22;901;48.142;11.516;2022-08-24T11:21:47;25.60;99.90
1806;DHT22;901;48.142;11.516;2022-08-24T11:24:41;25.60;99.90
1806;DHT22;901;48.142;11.516;2022-08-24T11:27:20;25.60;99.90
1806;DHT22;901;48.142;11.516;2022-08-24T11:30:11;25.40;99.90
1806;DHT22;901;48.142;11.516;2022-08-24T11:32:43;25.50;99.90
1806;DHT22;901;48.142;11.516;2022-08-24T11:35:21;25.50;99.90
1806;DHT22;901;48.142;11.516;2022-08-24T11:37:50;25.50;99.90
1806;DHT22;901;48.142;11.516;2022-08-24T11:40:18;25.40;99.90
1806;DHT22;901;48.142;11.516;2022-08-24T11:42:56;25.40;99.90
1806;DHT22;901;48.142;11.516;2022-08-24T11:45:31;25.40;99.90
1806;DHT22;901;48.142;11.516;2022-08-24T11:48:14;25.50;99.90
1806;DHT22;901;48.142;11.516;2022-08-24T11:50:49;25.60;99.90
1806;DHT22;901;48.142;11.516;2022-08-24T11:53:27;25.50;99.90
1806;DHT22;901;48.142;11.516;2022-08-24T11:56:03;25.60;99.90
1806;DHT22;901;48.142;11.516;2022-08-24T11:58:38;25.70;99.90
1806;DHT22;901;48.142;11.516;2022-08-24T12:01:13;25.70;99.90
1806;DHT22;901;48.142;11.516;2022-08-24T12:03:51;25.90;99.90
1806;DHT22;901;48.142;11.516;2022-08-24T12:06:29;26.00;99.90
1806;DHT22;901;48.142;11.516;2022-08-24T12:09:05;26.00;99.90
1806;DHT22;901;48.142;11.516;2022-08-24T12:11:41;26.00;99.90
1806;DHT22;901;48.142;11.516;2022-08-24T12:14:16;25.90;99.90
1806;DHT22;901;48.142;11.516;2022-08-24T12:16:49;26.00;99.90
1806;DHT22;901;48.142;11.516;2022-08-24T12:19:25;26.00;99.90
1806;DHT22;901;48.142;11.516;2022-08-24T12:21:54;26.10;99.90
1806;DHT22;901;48.142;11.516;2022-08-24T12:24:28;26.10;99.90
1806;DHT22;901;48.142;11.516;2022-08-24T12:26:59;26.30;99.90
1806;DHT22;901;48.142;11.516;2022-08-24T12:29:30;26.30;99.90
1806;DHT22;901;48.142;11.516;2022-08-24T12:32:02;26.50;99.90
1806;DHT22;901;48.142;11.516;2022-08-24T12:34:40;26.50;99.90
1806;DHT22;901;48.142;11.516;2022-08-24T12:37:14;26.70;99.90
1806;DHT22;901;48.142;11.516;2022-08-24T12:39:45;26.70;99.90
1806;DHT22;901;48.142;11.516;2022-08-24T12:42:18;26.70;99.90
1806;DHT22;901;48.142;11.516;2022-08-24T12:44:49;26.80;99.90
1806;DHT22;901;48.142;11.516;2022-08-24T12:47:21;26.80;99.90
1806;DHT22;901;48.142;11.516;2022-08-24T12:49:55;26.80;99.90
1806;DHT22;901;48.142;11.516;2022-08-24T12:52:47;26.80;99.90
1806;DHT22;901;48.142;11.516;2022-08-24T12:55:50;26.70;99.90
1806;DHT22;901;48.142;11.516;2022-08-24T12:58:43;26.40;99.90
1806;DHT22;901;48.142;11.516;2022-08-24T13:01:14;26.20;99.90
1806;DHT22;901;48.142;11.516;2022-08-24T13:03:42;26.10;99.90
1806;DHT22;901;48.142;11.516;2022-08-24T13:06:24;26.10;99.90
1806;DHT22;901;48.142;11.516;2022-08-24T13:08:53;25.90;99.90
1806;DHT22;901;48.142;11.516;2022-08-24T13:11:32;25.70;99.90
1806;DHT22;901;48.142;11.516;2022-08-24T13:14:15;25.60;99.90
1806;DHT22;901;48.142;11.516;2022-08-24T13:17:08;25.50;99.90
1806;DHT22;901;48.142;11.516;2022-08-24T13:19:39;25.60;99.90
1806;DHT22;901;48.142;11.516;2022-08-24T13:28:41;25.30;99.90
1806;DHT22;901;48.142;11.516;2022-08-24T13:31:25;25.30;99.90
1806;DHT22;901;48.142;11.516;2022-08-24T13:33:57;25.40;99.90
1806;DHT22;901;48.142;11.516;2022-08-24T13:36:39;25.50;99.90
1806;DHT22;901;48.142;11.516;2022-08-24T13:39:33;25.40;99.90
1806;DHT22;901;48.142;11.516;2022-08-24T13:42:14;25.40;99.90
1806;DHT22;901;48.142;11.516;2022-08-24T13:45:07;25.50;99.90
1806;DHT22;901;48.142;11.516;2022-08-24T13:47:53;25.50;99.90
1806;DHT22;901;48.142;11.516;2022-08-24T13:50:30;25.50;99.90
1806;DHT22;901;48.142;11.516;2022-08-24T13:53:14;25.50;99.90
1806;DHT22;901;48.142;11.516;2022-08-24T13:55:53;25.60;99.90
1806;DHT22;901;48.142;11.516;2022-08-24T13:58:36;25.60;99.90
1806;DHT22;901;48.142;11.516;2022-08-24T14:01:23;25.60;99.90
1806;DHT22;901;48.142;11.516;2022-08-24T14:04:06;25.70;99.90
1806;DHT22;901;48.142;11.516;2022-08-24T14:06:36;26.00;99.90
1806;DHT22;901;48.142;11.516;2022-08-24T14:12:23;26.30;99.90
1806;DHT22;901;48.142;11.516;2022-08-24T14:15:09;26.30;99.90
1806;DHT22;901;48.142;11.516;2022-08-24T14:17:43;26.30;99.90
1806;DHT22;901;48.142;11.516;2022-08-24T14:20:29;26.30;99.90
1806;DHT22;901;48.142;11.516;2022-08-24T14:23:03;26.30;99.90
1806;DHT22;901;48.142;11.516;2022-08-24T14:25:33;26.40;99.90
1806;DHT22;901;48.142;11.516;2022-08-24T14:28:34;26.40;99.90
1806;DHT22;901;48.142;11.516;2022-08-24T14:31:18;26.30;99.90
1806;DHT22;901;48.142;11.516;2022-08-24T14:33:56;26.10;99.90
1806;DHT22;901;48.142;11.516;2022-08-24T14:36:29;25.90;99.90
1806;DHT22;901;48.142;11.516;2022-08-24T14:39:18;25.90;99.90
1806;DHT22;901;48.142;11.516;2022-08-24T14:41:56;26.00;99.90
1806;DHT22;901;48.142;11.516;2022-08-24T14:44:32;26.00;99.90
1806;DHT22;901;48.142;11.516;2022-08-24T14:47:10;26.10;99.90
1806;DHT22;901;48.142;11.516;2022-08-24T14:49:44;26.10;99.90
1806;DHT22;901;48.142;11.516;2022-08-24T14:52:25;26.20;99.90
1806;DHT22;901;48.142;11.516;2022-08-24T14:55:06;26.20;99.90
1806;DHT22;901;48.142;11.516;2022-08-24T14:57:59;26.20;99.90
1806;DHT22;901;48.142;11.516;2022-08-24T15:00:46;26.20;99.90
1806;DHT22;901;48.142;11.516;2022-08-24T15:03:26;26.20;99.90
1806;DHT22;901;48.142;11.516;2022-08-24T15:06:18;26.10;99.90
1806;DHT22;901;48.142;11.516;2022-08-24T15:08:47;26.20;99.90
1806;DHT22;901;48.142;11.516;2022-08-24T15:11:16;26.20;99.90
1806;DHT22;901;48.142;11.516;2022-08-24T15:13:49;26.20;99.90
1806;DHT22;901;48.142;11.516;2022-08-24T15:16:26;26.30;99.90
1806;DHT22;901;48.142;11.516;2022-08-24T15:19:03;26.30;99.90
1806;DHT22;901;48.142;11.516;2022-08-24T15:21:42;26.30;99.90
1806;DHT22;901;48.142;11.516;2022-08-24T15:24:18;26.30;99.90
1806;DHT22;901;48.142;11.516;2022-08-24T15:27:13;26.20;99.90
1806;DHT22;901;48.142;11.516;2022-08-24T15:29:50;26.10;99.90
1806;DHT22;901;48.142;11.516;2022-08-24T15:32:19;26.10;99.90
1806;DHT22;901;48.142;11.516;2022-08-24T15:34:49;26.10;99.90
1806;DHT22;901;48.142;11.516;2022-08-24T15:37:28;26.00;99.90
1806;DHT22;901;48.142;11.516;2022-08-24T15:39:55;26.00;99.90
1806;DHT22;901;48.142;11.516;2022-08-24T15:42:24;25.90;99.90
1806;DHT22;901;48.142;11.516;2022-08-24T15:44:51;25.80;99.90
1806;DHT22;901;48.142;11.516;2022-08-24T15:47:23;25.80;99.90
1806;DHT22;901;48.142;11.516;2022-08-24T15:49:55;25.90;99.90
1806;DHT22;901;48.142;11.516;2022-08-24T15:52:46;25.90;99.90
1806;DHT22;901;48.142;11.516;2022-08-24T15:55:33;26.00;99.90
1806;DHT22;901;48.142;11.516;2022-08-24T15:58:24;26.00;99.90
1806;DHT22;901;48.142;11.516;2022-08-24T16:00:52;25.90;99.90
1806;DHT22;901;48.142;11.516;2022-08-24T16:03:49;25.80;99.90
1806;DHT22;901;48.142;11.516;2022-08-24T16:06:22;25.70;99.90
1806;DHT22;901;48.142;11.516;2022-08-24T16:09:03;25.70;99.90
1806;DHT22;901;48.142;11.516;2022-08-24T16:11:33;25.70;99.90
1806;DHT22;901;48.142;11.516;2022-08-24T16:14:04;25.70;99.90
1806;DHT22;901;48.142;11.516;2022-08-24T16:16:36;25.60;99.90
1806;DHT22;901;48.142;11.516;2022-08-24T16:19:16;25.60;99.90
1806;DHT22;901;48.142;11.516;2022-08-24T16:21:53;25.60;99.90
1806;DHT22;901;48.142;11.516;2022-08-24T16:24:30;25.50;99.90
1806;DHT22;901;48.142;11.516;2022-08-24T16:27:05;25.30;99.90
1806;DHT22;901;48.142;11.516;2022-08-24T16:29:51;25.30;99.90
1806;DHT22;901;48.142;11.516;2022-08-24T16:32:22;25.30;99.90
1806;DHT22;901;48.142;11.516;2022-08-24T16:34:51;25.30;99.90
1806;DHT22;901;48.142;11.516;2022-08-24T16:37:21;25.30;99.90
1806;DHT22;901;48.142;11.516;2022-08-24T16:39:50;25.30;99.90
1806;DHT22;901;48.142;11.516;2022-08-24T16:42:21;25.30;99.90
1806;DHT22;901;48.142;11.516;2022-08-24T16:44:50;25.30;99.90
1806;DHT22;901;48.142;11.516;2022-08-24T16:47:18;25.30;99.90
1806;DHT22;901;48.142;11.516;2022-08-24T16:49:45;25.30;99.90
1806;DHT22;901;48.142;11.516;2022-08-24T16:52:13;25.30;99.90
1806;DHT22;901;48.142;11.516;2022-08-24T16:54:42;25.30;99.90
1806;DHT22;901;48.142;11.516;2022-08-24T16:57:12;25.10;99.90
1806;DHT22;901;48.142;11.516;2022-08-24T16:59:42;25.00;99.90
1806;DHT22;901;48.142;11.516;2022-08-24T17:02:09;25.00;99.90
1806;DHT22;901;48.142;11.516;2022-08-24T17:04:37;25.00;99.90
1806;DHT22;901;48.142;11.516;2022-08-24T17:07:08;25.00;99.90
1806;DHT22;901;48.142;11.516;2022-08-24T17:09:42;24.90;99.90